logo tempoitalia

Diretta Meteo Columbia, Stati Uniti (USA)lunedì 31 agosto ore 00:54

Mappa
Sereno 24 °C Sereno 24 Ore: T.min 19 T.max 34
Ponente Sud/Sud-Est Km/h 14.8 Punto di rugiada: 18 °C Umidità: 69% Visibilità: 10 Km
Il sole sorge alle: 06:37 Il sole tramonta alle: 19:40
31 Agosto 2026 00:54 tempo osservato: Sereno Sereno 24 69 1015 vento: Nord S/SE 14.8
30 Agosto 2026 23:54 tempo osservato: Sereno Sereno 24 73 1015 vento: Nord S/SE 13
30 Agosto 2026 22:54 tempo osservato: Sereno Sereno 25 69 1015 vento: Nord S/SE 11.1
30 Agosto 2026 21:54 tempo osservato: Sereno Sereno 26 69 1014 vento: Nord SE 11.1
30 Agosto 2026 20:54 tempo osservato: Sereno Sereno 27 69 1014 vento: Nord SE 13
30 Agosto 2026 19:54 tempo osservato: Sereno Sereno 28 65 1013 vento: Nord SE 13
30 Agosto 2026 18:54 tempo osservato: Sereno Sereno 32 49 1013 vento: Nord SE 11.1
30 Agosto 2026 17:54 tempo osservato: Sereno Sereno 34 41 1013 vento: Nord S 13
30 Agosto 2026 16:54 tempo osservato: Sereno Sereno 34 38 1014 vento: Nord S 13
30 Agosto 2026 15:54 tempo osservato: Sereno Sereno 34 41 1014 vento: Nord S 14.8
30 Agosto 2026 14:54 tempo osservato: Sereno Sereno 34 41 1015 vento: Nord S 14.8
30 Agosto 2026 13:54 tempo osservato: Sereno Sereno 33 41 1015 vento: Nord S/SO 16.7
30 Agosto 2026 12:54 tempo osservato: Sereno Sereno 32 43 1016 vento: Nord S 22.2
30 Agosto 2026 11:54 tempo osservato: Sereno Sereno 32 40 1016 vento: Nord S/SO 22.2
30 Agosto 2026 10:54 tempo osservato: Sereno Sereno 29 51 1016 vento: Nord S 16.7
30 Agosto 2026 09:54 tempo osservato: Sereno Sereno 27 54 1016 vento: Nord S 16.7
30 Agosto 2026 08:54 tempo osservato: Sereno Sereno 24 64 1016 vento: Nord S 13
30 Agosto 2026 07:54 tempo osservato: Sereno Sereno 22 68 1016 vento: Nord S 14.8
30 Agosto 2026 06:54 tempo osservato: Sereno Sereno 19 77 1016 vento: Nord S 11.1
30 Agosto 2026 05:54 tempo osservato: Sereno Sereno 20 72 1016 vento: Nord S 11.1
30 Agosto 2026 04:54 tempo osservato: Sereno Sereno 22 64 1015 vento: Nord S 16.7
30 Agosto 2026 03:54 tempo osservato: Sereno Sereno 21 73 1016 vento: Nord S/SE 14.8
30 Agosto 2026 02:54 tempo osservato: Sereno Sereno 21 73 1015 vento: Nord S 14.8
30 Agosto 2026 01:54 tempo osservato: Sereno Sereno 22 68 1016 vento: Nord S/SE 14.8